sensor_id;sensor_type;location;lat;lon;timestamp;P1;durP1;ratioP1;P2;durP2;ratioP2
51732;SDS011;39139;53.144;6.244;2024-03-02T00:00:25;3.55;;;2.22;;
51732;SDS011;39139;53.144;6.244;2024-03-02T00:02:52;1.58;;;1.48;;
51732;SDS011;39139;53.144;6.244;2024-03-02T00:05:18;3.08;;;1.63;;
51732;SDS011;39139;53.144;6.244;2024-03-02T00:07:45;3.08;;;2.00;;
51732;SDS011;39139;53.144;6.244;2024-03-02T00:10:25;2.75;;;2.20;;
51732;SDS011;39139;53.144;6.244;2024-03-02T00:12:57;2.67;;;2.05;;
51732;SDS011;39139;53.144;6.244;2024-03-02T00:15:34;3.95;;;2.47;;
51732;SDS011;39139;53.144;6.244;2024-03-02T00:18:08;2.40;;;1.88;;
51732;SDS011;39139;53.144;6.244;2024-03-02T00:20:35;2.80;;;2.60;;
51732;SDS011;39139;53.144;6.244;2024-03-02T00:23:08;2.97;;;2.20;;
51732;SDS011;39139;53.144;6.244;2024-03-02T00:25:39;3.35;;;2.05;;
51732;SDS011;39139;53.144;6.244;2024-03-02T00:28:14;4.10;;;2.95;;
51732;SDS011;39139;53.144;6.244;2024-03-02T00:33:08;4.57;;;2.10;;
51732;SDS011;39139;53.144;6.244;2024-03-02T00:35:35;2.17;;;1.70;;
51732;SDS011;39139;53.144;6.244;2024-03-02T00:38:06;2.30;;;2.03;;
51732;SDS011;39139;53.144;6.244;2024-03-02T00:40:32;2.58;;;2.38;;
51732;SDS011;39139;53.144;6.244;2024-03-02T00:42:58;3.78;;;1.55;;
51732;SDS011;39139;53.144;6.244;2024-03-02T00:45:25;4.18;;;2.20;;
51732;SDS011;39139;53.144;6.244;2024-03-02T00:47:51;2.42;;;2.22;;
51732;SDS011;39139;53.144;6.244;2024-03-02T00:50:17;2.03;;;1.80;;
51732;SDS011;39139;53.144;6.244;2024-03-02T00:52:43;3.53;;;2.33;;
51732;SDS011;39139;53.144;6.244;2024-03-02T00:55:09;1.92;;;1.83;;
51732;SDS011;39139;53.144;6.244;2024-03-02T00:57:35;3.05;;;1.90;;
51732;SDS011;39139;53.144;6.244;2024-03-02T01:00:00;2.50;;;2.30;;
51732;SDS011;39139;53.144;6.244;2024-03-02T01:02:26;4.45;;;2.42;;
51732;SDS011;39139;53.144;6.244;2024-03-02T01:04:54;2.42;;;2.13;;
51732;SDS011;39139;53.144;6.244;2024-03-02T01:07:19;4.38;;;2.20;;
51732;SDS011;39139;53.144;6.244;2024-03-02T01:09:45;2.03;;;1.67;;
51732;SDS011;39139;53.144;6.244;2024-03-02T01:12:11;1.65;;;1.55;;
51732;SDS011;39139;53.144;6.244;2024-03-02T01:14:36;3.53;;;2.30;;
51732;SDS011;39139;53.144;6.244;2024-03-02T01:17:02;2.35;;;2.15;;
51732;SDS011;39139;53.144;6.244;2024-03-02T01:19:29;5.05;;;2.40;;
51732;SDS011;39139;53.144;6.244;2024-03-02T01:21:56;4.50;;;2.15;;
51732;SDS011;39139;53.144;6.244;2024-03-02T01:24:21;2.78;;;1.95;;
51732;SDS011;39139;53.144;6.244;2024-03-02T01:26:47;3.45;;;1.48;;
51732;SDS011;39139;53.144;6.244;2024-03-02T01:29:13;2.17;;;1.98;;
51732;SDS011;39139;53.144;6.244;2024-03-02T01:31:38;3.97;;;1.77;;
51732;SDS011;39139;53.144;6.244;2024-03-02T01:34:07;1.73;;;1.63;;
51732;SDS011;39139;53.144;6.244;2024-03-02T01:36:33;3.65;;;1.58;;
51732;SDS011;39139;53.144;6.244;2024-03-02T01:38:59;1.92;;;1.75;;
51732;SDS011;39139;53.144;6.244;2024-03-02T01:41:24;4.22;;;2.15;;
51732;SDS011;39139;53.144;6.244;2024-03-02T01:43:50;2.50;;;1.83;;
51732;SDS011;39139;53.144;6.244;2024-03-02T01:46:16;2.50;;;1.77;;
51732;SDS011;39139;53.144;6.244;2024-03-02T01:48:41;2.38;;;1.58;;
51732;SDS011;39139;53.144;6.244;2024-03-02T01:51:07;2.78;;;2.25;;
51732;SDS011;39139;53.144;6.244;2024-03-02T01:53:33;2.70;;;2.05;;
51732;SDS011;39139;53.144;6.244;2024-03-02T01:56:00;2.55;;;2.05;;
51732;SDS011;39139;53.144;6.244;2024-03-02T01:58:26;2.75;;;2.28;;
51732;SDS011;39139;53.144;6.244;2024-03-02T02:00:52;2.83;;;2.17;;
51732;SDS011;39139;53.144;6.244;2024-03-02T02:03:18;2.83;;;1.83;;
51732;SDS011;39139;53.144;6.244;2024-03-02T02:05:44;2.25;;;2.05;;
51732;SDS011;39139;53.144;6.244;2024-03-02T02:08:10;3.35;;;2.65;;
51732;SDS011;39139;53.144;6.244;2024-03-02T02:10:36;1.85;;;1.52;;
51732;SDS011;39139;53.144;6.244;2024-03-02T02:13:02;3.30;;;1.63;;
51732;SDS011;39139;53.144;6.244;2024-03-02T02:15:28;1.60;;;1.50;;
51732;SDS011;39139;53.144;6.244;2024-03-02T02:17:55;2.35;;;1.88;;
51732;SDS011;39139;53.144;6.244;2024-03-02T02:20:21;4.70;;;2.33;;
51732;SDS011;39139;53.144;6.244;2024-03-02T02:22:56;3.08;;;2.13;;
51732;SDS011;39139;53.144;6.244;2024-03-02T02:25:29;2.92;;;2.22;;
51732;SDS011;39139;53.144;6.244;2024-03-02T02:27:55;4.30;;;1.73;;
51732;SDS011;39139;53.144;6.244;2024-03-02T02:30:22;2.70;;;2.40;;
51732;SDS011;39139;53.144;6.244;2024-03-02T02:32:52;2.92;;;2.00;;
51732;SDS011;39139;53.144;6.244;2024-03-02T02:35:18;2.78;;;2.00;;
51732;SDS011;39139;53.144;6.244;2024-03-02T02:37:44;3.90;;;1.90;;
51732;SDS011;39139;53.144;6.244;2024-03-02T02:40:12;4.00;;;1.80;;
51732;SDS011;39139;53.144;6.244;2024-03-02T02:42:38;3.65;;;2.03;;
51732;SDS011;39139;53.144;6.244;2024-03-02T02:45:04;2.20;;;1.67;;
51732;SDS011;39139;53.144;6.244;2024-03-02T02:47:31;3.17;;;2.05;;
51732;SDS011;39139;53.144;6.244;2024-03-02T02:50:00;2.70;;;2.30;;
51732;SDS011;39139;53.144;6.244;2024-03-02T02:52:32;2.28;;;2.08;;
51732;SDS011;39139;53.144;6.244;2024-03-02T02:57:24;2.10;;;1.90;;
51732;SDS011;39139;53.144;6.244;2024-03-02T02:59:50;2.53;;;2.15;;
51732;SDS011;39139;53.144;6.244;2024-03-02T03:02:15;2.88;;;2.20;;
51732;SDS011;39139;53.144;6.244;2024-03-02T03:04:41;2.78;;;2.20;;
51732;SDS011;39139;53.144;6.244;2024-03-02T03:07:07;7.22;;;2.40;;
51732;SDS011;39139;53.144;6.244;2024-03-02T03:09:32;4.03;;;2.25;;
51732;SDS011;39139;53.144;6.244;2024-03-02T03:11:58;2.75;;;2.25;;
51732;SDS011;39139;53.144;6.244;2024-03-02T03:14:23;1.92;;;1.60;;
51732;SDS011;39139;53.144;6.244;2024-03-02T03:16:49;2.38;;;2.17;;
51732;SDS011;39139;53.144;6.244;2024-03-02T03:19:15;4.07;;;2.40;;
51732;SDS011;39139;53.144;6.244;2024-03-02T03:21:43;2.20;;;1.95;;
51732;SDS011;39139;53.144;6.244;2024-03-02T03:24:08;2.30;;;2.10;;
51732;SDS011;39139;53.144;6.244;2024-03-02T03:26:35;4.28;;;1.48;;
51732;SDS011;39139;53.144;6.244;2024-03-02T03:29:02;3.42;;;1.83;;
51732;SDS011;39139;53.144;6.244;2024-03-02T03:31:27;2.67;;;2.25;;
51732;SDS011;39139;53.144;6.244;2024-03-02T03:33:54;2.45;;;2.00;;
51732;SDS011;39139;53.144;6.244;2024-03-02T03:36:20;3.47;;;2.33;;
51732;SDS011;39139;53.144;6.244;2024-03-02T03:38:45;2.13;;;2.03;;
51732;SDS011;39139;53.144;6.244;2024-03-02T03:41:11;3.10;;;2.83;;
51732;SDS011;39139;53.144;6.244;2024-03-02T03:43:36;2.67;;;1.90;;
51732;SDS011;39139;53.144;6.244;2024-03-02T03:46:02;3.10;;;1.85;;
51732;SDS011;39139;53.144;6.244;2024-03-02T03:48:28;2.65;;;2.33;;
51732;SDS011;39139;53.144;6.244;2024-03-02T03:50:56;2.22;;;2.00;;
51732;SDS011;39139;53.144;6.244;2024-03-02T03:53:21;3.17;;;2.05;;
51732;SDS011;39139;53.144;6.244;2024-03-02T03:55:47;3.45;;;2.45;;
51732;SDS011;39139;53.144;6.244;2024-03-02T03:58:14;3.70;;;2.50;;
51732;SDS011;39139;53.144;6.244;2024-03-02T04:00:42;4.53;;;2.28;;
51732;SDS011;39139;53.144;6.244;2024-03-02T04:03:08;2.55;;;1.75;;
51732;SDS011;39139;53.144;6.244;2024-03-02T04:05:33;3.00;;;2.10;;
51732;SDS011;39139;53.144;6.244;2024-03-02T04:07:59;2.85;;;2.42;;
51732;SDS011;39139;53.144;6.244;2024-03-02T04:10:26;4.78;;;2.17;;
51732;SDS011;39139;53.144;6.244;2024-03-02T04:12:51;3.22;;;2.15;;
51732;SDS011;39139;53.144;6.244;2024-03-02T04:15:17;2.55;;;2.25;;
51732;SDS011;39139;53.144;6.244;2024-03-02T04:17:43;2.85;;;2.00;;
51732;SDS011;39139;53.144;6.244;2024-03-02T04:20:09;3.95;;;1.98;;
51732;SDS011;39139;53.144;6.244;2024-03-02T04:22:37;2.50;;;2.30;;
51732;SDS011;39139;53.144;6.244;2024-03-02T04:25:03;3.20;;;2.65;;
51732;SDS011;39139;53.144;6.244;2024-03-02T04:27:32;2.28;;;2.17;;
51732;SDS011;39139;53.144;6.244;2024-03-02T04:29:58;3.45;;;2.28;;
51732;SDS011;39139;53.144;6.244;2024-03-02T04:32:25;3.03;;;2.65;;
51732;SDS011;39139;53.144;6.244;2024-03-02T04:34:54;5.47;;;2.70;;
51732;SDS011;39139;53.144;6.244;2024-03-02T04:37:19;2.15;;;1.88;;
51732;SDS011;39139;53.144;6.244;2024-03-02T04:39:45;2.60;;;2.13;;
51732;SDS011;39139;53.144;6.244;2024-03-02T04:42:11;5.20;;;2.22;;
51732;SDS011;39139;53.144;6.244;2024-03-02T04:44:36;2.58;;;2.38;;
51732;SDS011;39139;53.144;6.244;2024-03-02T04:47:03;2.08;;;1.98;;
51732;SDS011;39139;53.144;6.244;2024-03-02T04:49:29;2.03;;;1.80;;
51732;SDS011;39139;53.144;6.244;2024-03-02T04:51:55;3.05;;;2.10;;
51732;SDS011;39139;53.144;6.244;2024-03-02T04:54:21;4.22;;;2.45;;
51732;SDS011;39139;53.144;6.244;2024-03-02T04:56:47;3.42;;;2.30;;
51732;SDS011;39139;53.144;6.244;2024-03-02T04:59:16;2.35;;;2.15;;
51732;SDS011;39139;53.144;6.244;2024-03-02T05:01:43;3.30;;;2.17;;
51732;SDS011;39139;53.144;6.244;2024-03-02T05:04:09;2.28;;;2.05;;
51732;SDS011;39139;53.144;6.244;2024-03-02T05:06:39;2.58;;;2.17;;
51732;SDS011;39139;53.144;6.244;2024-03-02T05:09:06;2.17;;;2.00;;
51732;SDS011;39139;53.144;6.244;2024-03-02T05:11:34;2.47;;;2.20;;
51732;SDS011;39139;53.144;6.244;2024-03-02T05:14:03;3.15;;;2.25;;
51732;SDS011;39139;53.144;6.244;2024-03-02T05:16:32;2.45;;;1.98;;
51732;SDS011;39139;53.144;6.244;2024-03-02T05:18:59;2.55;;;2.10;;
51732;SDS011;39139;53.144;6.244;2024-03-02T05:21:25;5.45;;;2.65;;
51732;SDS011;39139;53.144;6.244;2024-03-02T05:23:50;2.17;;;1.98;;
51732;SDS011;39139;53.144;6.244;2024-03-02T05:26:16;1.95;;;1.80;;
51732;SDS011;39139;53.144;6.244;2024-03-02T05:28:42;2.20;;;1.20;;
51732;SDS011;39139;53.144;6.244;2024-03-02T05:31:10;1.90;;;1.52;;
51732;SDS011;39139;53.144;6.244;2024-03-02T05:33:39;2.75;;;1.77;;
51732;SDS011;39139;53.144;6.244;2024-03-02T05:36:05;3.50;;;1.50;;
51732;SDS011;39139;53.144;6.244;2024-03-02T05:38:31;1.65;;;1.30;;
51732;SDS011;39139;53.144;6.244;2024-03-02T05:40:57;2.33;;;1.50;;
51732;SDS011;39139;53.144;6.244;2024-03-02T05:43:23;1.60;;;1.02;;
51732;SDS011;39139;53.144;6.244;2024-03-02T05:45:48;2.63;;;1.23;;
51732;SDS011;39139;53.144;6.244;2024-03-02T05:48:14;2.00;;;1.50;;
51732;SDS011;39139;53.144;6.244;2024-03-02T05:50:40;1.33;;;1.23;;
51732;SDS011;39139;53.144;6.244;2024-03-02T05:53:05;2.45;;;0.93;;
51732;SDS011;39139;53.144;6.244;2024-03-02T05:55:31;3.80;;;1.38;;
51732;SDS011;39139;53.144;6.244;2024-03-02T05:57:57;1.13;;;1.02;;
51732;SDS011;39139;53.144;6.244;2024-03-02T06:00:32;0.95;;;0.80;;
51732;SDS011;39139;53.144;6.244;2024-03-02T06:02:58;2.97;;;0.55;;
51732;SDS011;39139;53.144;6.244;2024-03-02T06:05:24;1.10;;;0.60;;
51732;SDS011;39139;53.144;6.244;2024-03-02T06:07:50;2.78;;;0.52;;
51732;SDS011;39139;53.144;6.244;2024-03-02T06:10:16;1.13;;;0.20;;
51732;SDS011;39139;53.144;6.244;2024-03-02T06:12:42;1.05;;;0.30;;
51732;SDS011;39139;53.144;6.244;2024-03-02T06:15:08;1.40;;;0.20;;
51732;SDS011;39139;53.144;6.244;2024-03-02T06:17:37;2.08;;;0.10;;
51732;SDS011;39139;53.144;6.244;2024-03-02T06:20:03;0.77;;;0.30;;
51732;SDS011;39139;53.144;6.244;2024-03-02T06:22:29;0.30;;;0.20;;
51732;SDS011;39139;53.144;6.244;2024-03-02T06:24:54;1.23;;;0.10;;
51732;SDS011;39139;53.144;6.244;2024-03-02T06:27:20;0.85;;;0.20;;
51732;SDS011;39139;53.144;6.244;2024-03-02T06:29:46;0.28;;;0.10;;
51732;SDS011;39139;53.144;6.244;2024-03-02T06:32:11;0.50;;;0.10;;
51732;SDS011;39139;53.144;6.244;2024-03-02T06:34:37;1.38;;;0.25;;
51732;SDS011;39139;53.144;6.244;2024-03-02T06:37:03;0.38;;;0.10;;
51732;SDS011;39139;53.144;6.244;2024-03-02T06:39:28;0.88;;;0.10;;
51732;SDS011;39139;53.144;6.244;2024-03-02T06:41:54;2.35;;;0.15;;
51732;SDS011;39139;53.144;6.244;2024-03-02T06:44:19;0.35;;;0.10;;
51732;SDS011;39139;53.144;6.244;2024-03-02T06:46:46;0.32;;;0.10;;
51732;SDS011;39139;53.144;6.244;2024-03-02T06:49:11;3.40;;;0.20;;
51732;SDS011;39139;53.144;6.244;2024-03-02T06:51:37;3.15;;;0.30;;
51732;SDS011;39139;53.144;6.244;2024-03-02T06:54:03;0.10;;;0.03;;
51732;SDS011;39139;53.144;6.244;2024-03-02T06:56:29;0.22;;;0.20;;
51732;SDS011;39139;53.144;6.244;2024-03-02T06:58:55;1.02;;;0.30;;
51732;SDS011;39139;53.144;6.244;2024-03-02T07:01:21;0.80;;;0.20;;
51732;SDS011;39139;53.144;6.244;2024-03-02T07:03:46;0.38;;;0.20;;
51732;SDS011;39139;53.144;6.244;2024-03-02T07:06:12;0.52;;;0.20;;
51732;SDS011;39139;53.144;6.244;2024-03-02T07:08:38;1.42;;;0.30;;
51732;SDS011;39139;53.144;6.244;2024-03-02T07:11:03;0.40;;;0.10;;
51732;SDS011;39139;53.144;6.244;2024-03-02T07:13:29;1.00;;;0.28;;
51732;SDS011;39139;53.144;6.244;2024-03-02T07:15:55;0.32;;;0.22;;
51732;SDS011;39139;53.144;6.244;2024-03-02T07:18:26;0.20;;;0.20;;
51732;SDS011;39139;53.144;6.244;2024-03-02T07:20:52;0.55;;;0.10;;
51732;SDS011;39139;53.144;6.244;2024-03-02T07:23:17;1.80;;;0.20;;
51732;SDS011;39139;53.144;6.244;2024-03-02T07:25:43;0.50;;;0.20;;
51732;SDS011;39139;53.144;6.244;2024-03-02T07:28:09;1.17;;;0.13;;
51732;SDS011;39139;53.144;6.244;2024-03-02T07:30:34;3.25;;;0.30;;
51732;SDS011;39139;53.144;6.244;2024-03-02T07:33:00;1.25;;;0.35;;
51732;SDS011;39139;53.144;6.244;2024-03-02T07:35:25;3.17;;;0.30;;
51732;SDS011;39139;53.144;6.244;2024-03-02T07:37:56;1.67;;;0.47;;
51732;SDS011;39139;53.144;6.244;2024-03-02T07:40:22;0.30;;;0.30;;
51732;SDS011;39139;53.144;6.244;2024-03-02T07:42:48;3.40;;;0.30;;
51732;SDS011;39139;53.144;6.244;2024-03-02T07:45:14;0.30;;;0.10;;
51732;SDS011;39139;53.144;6.244;2024-03-02T07:47:40;0.40;;;0.40;;
51732;SDS011;39139;53.144;6.244;2024-03-02T07:50:06;2.60;;;0.60;;
51732;SDS011;39139;53.144;6.244;2024-03-02T07:52:32;1.00;;;0.20;;
51732;SDS011;39139;53.144;6.244;2024-03-02T07:54:58;0.70;;;0.32;;
51732;SDS011;39139;53.144;6.244;2024-03-02T07:57:24;0.70;;;0.20;;
51732;SDS011;39139;53.144;6.244;2024-03-02T07:59:50;0.25;;;0.20;;
51732;SDS011;39139;53.144;6.244;2024-03-02T08:02:16;0.40;;;0.30;;
51732;SDS011;39139;53.144;6.244;2024-03-02T08:04:42;1.13;;;0.40;;
51732;SDS011;39139;53.144;6.244;2024-03-02T08:07:08;0.90;;;0.52;;
51732;SDS011;39139;53.144;6.244;2024-03-02T08:09:34;1.23;;;0.40;;
51732;SDS011;39139;53.144;6.244;2024-03-02T08:12:00;1.08;;;0.73;;
51732;SDS011;39139;53.144;6.244;2024-03-02T08:14:25;1.17;;;0.40;;
51732;SDS011;39139;53.144;6.244;2024-03-02T08:16:51;1.25;;;0.52;;
51732;SDS011;39139;53.144;6.244;2024-03-02T08:19:16;0.68;;;0.50;;
51732;SDS011;39139;53.144;6.244;2024-03-02T08:21:43;2.55;;;0.40;;
51732;SDS011;39139;53.144;6.244;2024-03-02T08:24:08;0.30;;;0.25;;
51732;SDS011;39139;53.144;6.244;2024-03-02T08:26:34;1.05;;;0.47;;
51732;SDS011;39139;53.144;6.244;2024-03-02T08:29:00;0.63;;;0.13;;
51732;SDS011;39139;53.144;6.244;2024-03-02T08:31:29;3.72;;;0.20;;
51732;SDS011;39139;53.144;6.244;2024-03-02T08:33:55;1.83;;;0.15;;
51732;SDS011;39139;53.144;6.244;2024-03-02T08:36:22;3.05;;;0.30;;
51732;SDS011;39139;53.144;6.244;2024-03-02T08:38:48;0.73;;;0.30;;
51732;SDS011;39139;53.144;6.244;2024-03-02T08:41:15;1.35;;;0.40;;
51732;SDS011;39139;53.144;6.244;2024-03-02T08:43:41;3.40;;;0.40;;
51732;SDS011;39139;53.144;6.244;2024-03-02T08:46:07;0.70;;;0.20;;
51732;SDS011;39139;53.144;6.244;2024-03-02T08:48:33;0.93;;;0.20;;
51732;SDS011;39139;53.144;6.244;2024-03-02T08:50:59;0.47;;;0.30;;
51732;SDS011;39139;53.144;6.244;2024-03-02T08:53:25;0.57;;;0.30;;
51732;SDS011;39139;53.144;6.244;2024-03-02T08:55:51;3.15;;;0.60;;
51732;SDS011;39139;53.144;6.244;2024-03-02T08:58:17;0.50;;;0.20;;
51732;SDS011;39139;53.144;6.244;2024-03-02T09:00:43;0.85;;;0.40;;
51732;SDS011;39139;53.144;6.244;2024-03-02T09:03:09;1.83;;;0.28;;
51732;SDS011;39139;53.144;6.244;2024-03-02T09:05:35;1.02;;;0.20;;
51732;SDS011;39139;53.144;6.244;2024-03-02T09:08:00;1.05;;;0.30;;
51732;SDS011;39139;53.144;6.244;2024-03-02T09:10:28;0.93;;;0.20;;
51732;SDS011;39139;53.144;6.244;2024-03-02T09:12:54;1.55;;;0.30;;
51732;SDS011;39139;53.144;6.244;2024-03-02T09:15:19;0.30;;;0.08;;
51732;SDS011;39139;53.144;6.244;2024-03-02T09:17:45;0.88;;;0.43;;
51732;SDS011;39139;53.144;6.244;2024-03-02T09:20:11;3.70;;;0.30;;
51732;SDS011;39139;53.144;6.244;2024-03-02T09:22:36;1.65;;;0.32;;
51732;SDS011;39139;53.144;6.244;2024-03-02T09:25:02;2.72;;;0.40;;
51732;SDS011;39139;53.144;6.244;2024-03-02T09:27:28;2.17;;;0.40;;
51732;SDS011;39139;53.144;6.244;2024-03-02T09:29:54;0.35;;;0.10;;
51732;SDS011;39139;53.144;6.244;2024-03-02T09:32:19;1.02;;;0.10;;
51732;SDS011;39139;53.144;6.244;2024-03-02T09:34:45;1.30;;;0.30;;
51732;SDS011;39139;53.144;6.244;2024-03-02T09:37:11;2.45;;;0.50;;
51732;SDS011;39139;53.144;6.244;2024-03-02T09:39:36;2.25;;;0.40;;
51732;SDS011;39139;53.144;6.244;2024-03-02T09:42:03;2.03;;;0.50;;
51732;SDS011;39139;53.144;6.244;2024-03-02T09:44:29;3.33;;;0.40;;
51732;SDS011;39139;53.144;6.244;2024-03-02T09:46:55;1.83;;;0.30;;
51732;SDS011;39139;53.144;6.244;2024-03-02T09:49:21;1.88;;;0.28;;
51732;SDS011;39139;53.144;6.244;2024-03-02T09:51:47;2.05;;;0.45;;
51732;SDS011;39139;53.144;6.244;2024-03-02T09:54:15;1.08;;;0.35;;
51732;SDS011;39139;53.144;6.244;2024-03-02T09:56:41;1.75;;;0.47;;
51732;SDS011;39139;53.144;6.244;2024-03-02T09:59:07;1.27;;;0.43;;
51732;SDS011;39139;53.144;6.244;2024-03-02T10:01:33;1.58;;;0.40;;
51732;SDS011;39139;53.144;6.244;2024-03-02T10:03:59;2.25;;;0.30;;
51732;SDS011;39139;53.144;6.244;2024-03-02T10:06:25;2.70;;;0.50;;
51732;SDS011;39139;53.144;6.244;2024-03-02T10:08:53;3.50;;;0.38;;
51732;SDS011;39139;53.144;6.244;2024-03-02T10:11:26;1.52;;;0.50;;
51732;SDS011;39139;53.144;6.244;2024-03-02T10:16:41;1.50;;;0.20;;
51732;SDS011;39139;53.144;6.244;2024-03-02T10:21:49;3.60;;;0.40;;
51732;SDS011;39139;53.144;6.244;2024-03-02T10:26:42;0.80;;;0.43;;
51732;SDS011;39139;53.144;6.244;2024-03-02T10:29:08;1.40;;;0.22;;
51732;SDS011;39139;53.144;6.244;2024-03-02T10:31:36;2.22;;;0.40;;
51732;SDS011;39139;53.144;6.244;2024-03-02T10:34:06;1.17;;;0.20;;
51732;SDS011;39139;53.144;6.244;2024-03-02T10:36:33;1.02;;;0.47;;
51732;SDS011;39139;53.144;6.244;2024-03-02T10:39:01;3.50;;;0.32;;
51732;SDS011;39139;53.144;6.244;2024-03-02T10:41:29;2.35;;;0.43;;
51732;SDS011;39139;53.144;6.244;2024-03-02T10:44:04;0.60;;;0.28;;
51732;SDS011;39139;53.144;6.244;2024-03-02T10:46:32;3.25;;;0.40;;
51732;SDS011;39139;53.144;6.244;2024-03-02T10:49:03;3.45;;;0.30;;
51732;SDS011;39139;53.144;6.244;2024-03-02T10:51:31;2.30;;;0.52;;
51732;SDS011;39139;53.144;6.244;2024-03-02T10:53:58;2.00;;;0.20;;
51732;SDS011;39139;53.144;6.244;2024-03-02T10:56:33;4.28;;;0.52;;
51732;SDS011;39139;53.144;6.244;2024-03-02T11:02:01;3.03;;;0.75;;
51732;SDS011;39139;53.144;6.244;2024-03-02T11:04:28;1.60;;;0.38;;
51732;SDS011;39139;53.144;6.244;2024-03-02T11:07:05;1.13;;;0.30;;
51732;SDS011;39139;53.144;6.244;2024-03-02T11:09:35;1.77;;;0.50;;
51732;SDS011;39139;53.144;6.244;2024-03-02T11:15:18;1.00;;;0.43;;
51732;SDS011;39139;53.144;6.244;2024-03-02T11:17:44;1.08;;;0.28;;
51732;SDS011;39139;53.144;6.244;2024-03-02T11:20:11;1.05;;;0.40;;
51732;SDS011;39139;53.144;6.244;2024-03-02T11:22:38;1.05;;;0.30;;
51732;SDS011;39139;53.144;6.244;2024-03-02T11:25:04;3.08;;;0.32;;
51732;SDS011;39139;53.144;6.244;2024-03-02T11:33:02;5.30;;;0.60;;
51732;SDS011;39139;53.144;6.244;2024-03-02T11:35:32;1.85;;;0.30;;
51732;SDS011;39139;53.144;6.244;2024-03-02T11:37:59;1.65;;;0.25;;
51732;SDS011;39139;53.144;6.244;2024-03-02T11:40:28;0.70;;;0.17;;
51732;SDS011;39139;53.144;6.244;2024-03-02T11:42:55;2.20;;;0.38;;
51732;SDS011;39139;53.144;6.244;2024-03-02T11:45:27;6.30;;;0.57;;
51732;SDS011;39139;53.144;6.244;2024-03-02T11:47:56;1.75;;;0.45;;
51732;SDS011;39139;53.144;6.244;2024-03-02T11:51:07;1.03;;;0.30;;
51732;SDS011;39139;53.144;6.244;2024-03-02T11:53:12;3.17;;;0.45;;
51732;SDS011;39139;53.144;6.244;2024-03-02T11:55:39;3.10;;;0.40;;
51732;SDS011;39139;53.144;6.244;2024-03-02T11:58:23;3.00;;;0.40;;
51732;SDS011;39139;53.144;6.244;2024-03-02T12:03:18;1.25;;;0.20;;
51732;SDS011;39139;53.144;6.244;2024-03-02T12:05:51;1.75;;;0.45;;
51732;SDS011;39139;53.144;6.244;2024-03-02T12:08:20;0.73;;;0.43;;
51732;SDS011;39139;53.144;6.244;2024-03-02T12:10:59;3.85;;;0.52;;
51732;SDS011;39139;53.144;6.244;2024-03-02T12:13:25;3.28;;;0.57;;
51732;SDS011;39139;53.144;6.244;2024-03-02T12:15:52;3.08;;;0.20;;
51732;SDS011;39139;53.144;6.244;2024-03-02T12:18:20;0.80;;;0.20;;
51732;SDS011;39139;53.144;6.244;2024-03-02T12:20:45;2.17;;;0.55;;
51732;SDS011;39139;53.144;6.244;2024-03-02T12:23:13;3.70;;;0.25;;
51732;SDS011;39139;53.144;6.244;2024-03-02T12:25:39;1.27;;;0.43;;
51732;SDS011;39139;53.144;6.244;2024-03-02T12:28:05;3.17;;;0.32;;
51732;SDS011;39139;53.144;6.244;2024-03-02T12:30:32;1.10;;;0.28;;
51732;SDS011;39139;53.144;6.244;2024-03-02T12:33:00;2.20;;;0.55;;
51732;SDS011;39139;53.144;6.244;2024-03-02T12:35:26;2.05;;;0.50;;
51732;SDS011;39139;53.144;6.244;2024-03-02T12:37:52;1.65;;;0.40;;
51732;SDS011;39139;53.144;6.244;2024-03-02T12:40:19;1.90;;;0.35;;
51732;SDS011;39139;53.144;6.244;2024-03-02T12:42:45;1.75;;;0.20;;
51732;SDS011;39139;53.144;6.244;2024-03-02T12:45:12;2.75;;;0.55;;
51732;SDS011;39139;53.144;6.244;2024-03-02T12:47:39;2.75;;;0.57;;
51732;SDS011;39139;53.144;6.244;2024-03-02T12:50:05;1.80;;;0.50;;
51732;SDS011;39139;53.144;6.244;2024-03-02T12:52:32;2.38;;;0.28;;
51732;SDS011;39139;53.144;6.244;2024-03-02T12:54:59;4.80;;;0.50;;
51732;SDS011;39139;53.144;6.244;2024-03-02T13:00:00;2.35;;;0.30;;
51732;SDS011;39139;53.144;6.244;2024-03-02T13:02:34;0.98;;;0.32;;
51732;SDS011;39139;53.144;6.244;2024-03-02T13:05:00;1.25;;;0.30;;
51732;SDS011;39139;53.144;6.244;2024-03-02T13:07:26;2.38;;;0.45;;
51732;SDS011;39139;53.144;6.244;2024-03-02T13:09:52;1.67;;;0.73;;
51732;SDS011;39139;53.144;6.244;2024-03-02T13:12:20;3.47;;;0.40;;
51732;SDS011;39139;53.144;6.244;2024-03-02T13:14:52;1.17;;;0.28;;
51732;SDS011;39139;53.144;6.244;2024-03-02T13:17:19;4.47;;;0.80;;
51732;SDS011;39139;53.144;6.244;2024-03-02T13:19:52;2.95;;;0.60;;
51732;SDS011;39139;53.144;6.244;2024-03-02T13:22:22;1.30;;;0.38;;
51732;SDS011;39139;53.144;6.244;2024-03-02T13:24:48;3.28;;;0.40;;
51732;SDS011;39139;53.144;6.244;2024-03-02T13:27:14;2.05;;;0.57;;
51732;SDS011;39139;53.144;6.244;2024-03-02T13:29:41;2.20;;;0.30;;
51732;SDS011;39139;53.144;6.244;2024-03-02T13:32:07;1.27;;;0.38;;
51732;SDS011;39139;53.144;6.244;2024-03-02T13:34:34;1.83;;;0.40;;
51732;SDS011;39139;53.144;6.244;2024-03-02T13:37:01;2.50;;;0.57;;
51732;SDS011;39139;53.144;6.244;2024-03-02T13:39:27;2.00;;;0.60;;
51732;SDS011;39139;53.144;6.244;2024-03-02T13:41:52;2.63;;;0.73;;
51732;SDS011;39139;53.144;6.244;2024-03-02T13:44:26;1.73;;;0.50;;
51732;SDS011;39139;53.144;6.244;2024-03-02T13:46:52;2.38;;;0.63;;
51732;SDS011;39139;53.144;6.244;2024-03-02T13:49:18;1.40;;;0.32;;
51732;SDS011;39139;53.144;6.244;2024-03-02T13:51:43;3.85;;;0.77;;
51732;SDS011;39139;53.144;6.244;2024-03-02T13:54:10;1.52;;;0.70;;
51732;SDS011;39139;53.144;6.244;2024-03-02T13:56:36;1.08;;;0.73;;
51732;SDS011;39139;53.144;6.244;2024-03-02T13:59:04;1.35;;;0.70;;
51732;SDS011;39139;53.144;6.244;2024-03-02T14:01:30;2.20;;;0.80;;
51732;SDS011;39139;53.144;6.244;2024-03-02T14:03:57;5.13;;;1.52;;
51732;SDS011;39139;53.144;6.244;2024-03-02T14:06:23;3.88;;;1.33;;
51732;SDS011;39139;53.144;6.244;2024-03-02T14:08:51;4.00;;;1.40;;
51732;SDS011;39139;53.144;6.244;2024-03-02T14:11:17;2.33;;;1.00;;
51732;SDS011;39139;53.144;6.244;2024-03-02T14:13:44;2.45;;;1.40;;
51732;SDS011;39139;53.144;6.244;2024-03-02T14:16:14;4.90;;;0.90;;
51732;SDS011;39139;53.144;6.244;2024-03-02T14:18:40;5.45;;;1.00;;
51732;SDS011;39139;53.144;6.244;2024-03-02T14:21:07;2.70;;;0.98;;
51732;SDS011;39139;53.144;6.244;2024-03-02T14:23:33;2.75;;;0.70;;
51732;SDS011;39139;53.144;6.244;2024-03-02T14:25:58;3.60;;;1.10;;
51732;SDS011;39139;53.144;6.244;2024-03-02T14:28:24;2.90;;;1.60;;
51732;SDS011;39139;53.144;6.244;2024-03-02T14:30:50;6.18;;;2.38;;
51732;SDS011;39139;53.144;6.244;2024-03-02T14:33:15;2.60;;;1.35;;
51732;SDS011;39139;53.144;6.244;2024-03-02T14:35:42;3.33;;;2.03;;
51732;SDS011;39139;53.144;6.244;2024-03-02T14:38:07;2.88;;;1.73;;
51732;SDS011;39139;53.144;6.244;2024-03-02T14:40:33;6.03;;;2.10;;
51732;SDS011;39139;53.144;6.244;2024-03-02T14:42:59;4.35;;;3.92;;
51732;SDS011;39139;53.144;6.244;2024-03-02T14:45:24;5.10;;;2.60;;
51732;SDS011;39139;53.144;6.244;2024-03-02T14:47:51;6.93;;;3.10;;
51732;SDS011;39139;53.144;6.244;2024-03-02T14:50:17;3.05;;;2.83;;
51732;SDS011;39139;53.144;6.244;2024-03-02T14:52:46;5.97;;;4.03;;
51732;SDS011;39139;53.144;6.244;2024-03-02T14:55:12;5.60;;;4.37;;
51732;SDS011;39139;53.144;6.244;2024-03-02T14:57:38;5.18;;;4.75;;
51732;SDS011;39139;53.144;6.244;2024-03-02T15:00:03;5.28;;;4.03;;
51732;SDS011;39139;53.144;6.244;2024-03-02T15:02:32;6.93;;;4.80;;
51732;SDS011;39139;53.144;6.244;2024-03-02T15:04:58;8.90;;;4.22;;
51732;SDS011;39139;53.144;6.244;2024-03-02T15:07:24;4.22;;;3.80;;
51732;SDS011;39139;53.144;6.244;2024-03-02T15:09:50;5.78;;;4.40;;
51732;SDS011;39139;53.144;6.244;2024-03-02T15:12:16;5.35;;;3.75;;
51732;SDS011;39139;53.144;6.244;2024-03-02T15:14:42;3.70;;;3.20;;